PWSweather.com
Personal Weather Stations
Station Observations
RADILLY
Mcmurray, PA 15317

Mcmurray, PA 15317

Lat: 40.288, Lon: -80.095

Elevation: 1061

Station Type: Ambient WS-2080

http://dillys.org/wx/

Latest ConditionsUpdated 7:45:00 AM EDT Friday, Apr 19, 2019
Currently Today's Max Today's Min Today's Average
Temperature 66.0°F18.9°C 70.7°F21.5°C 63.3°F17.4°C 68.1°F20.1°C
Dew Point 53.9°F12.2°C 53.9°F12.2°C 49.9°F9.9°C 51.8°F11.0°C
Winds Calm Calm 4.5 mph -7.2 kmh - - 1.4 mph 2.3 kmh
Wind Gusts 1.6 mph2.6 kmh 6.9 mph11.1 kmh - -
Humidity 65% 65% 50% 56%
Pressure 29.60 in1002.4 mb 29.68 in1005.1 mb 29.59 in1002.0 mb -
Hour Temp Dew Point Humidity Winds Wind Gusts Pressure Precip Precip Rate Daily Precip Total
07:45 AM 66.0°F18.9°C 53.9°F12.2°C 65% Calm Calm 1.6 mph2.6 kmh 29.60 in1002.4 mb 0.00 in0.0 mm 0.00 in0.0 mm 0.00 in0.0 mm
07:30 AM 65.5°F18.6°C 53.4°F11.9°C 65% Calm Calm 1.6 mph2.6 kmh 29.60 in1002.4 mb 0.00 in0.0 mm 0.00 in0.0 mm 0.00 in0.0 mm
07:15 AM 65.5°F18.6°C 53.4°F11.9°C 65% Calm Calm 1.6 mph2.6 kmh 29.59 in1002.0 mb 0.00 in0.0 mm 0.00 in0.0 mm 0.00 in0.0 mm
07:00 AM 65.8°F18.8°C 53.3°F11.8°C 64% 0.7 mph SSE1.1 kmh SSE 3.1 mph5.0 kmh 29.59 in1002.0 mb 0.00 in0.0 mm 0.00 in0.0 mm 0.00 in0.0 mm
06:45 AM 66.2°F19.0°C 52.8°F11.6°C 62% 0.7 mph SSE1.1 kmh SSE 3.8 mph6.1 kmh 29.59 in1002.0 mb 0.00 in0.0 mm 0.00 in0.0 mm 0.00 in0.0 mm
06:30 AM 66.0°F18.9°C 52.6°F11.4°C 62% 1.6 mph SSE2.6 kmh SSE 3.1 mph5.0 kmh 29.59 in1002.0 mb 0.00 in0.0 mm 0.00 in0.0 mm 0.00 in0.0 mm
06:15 AM 65.7°F18.7°C 52.7°F11.5°C 63% 0.7 mph SSE1.1 kmh SSE 2.2 mph3.5 kmh 29.59 in1002.0 mb 0.00 in0.0 mm 0.00 in0.0 mm 0.00 in0.0 mm
06:00 AM 65.8°F18.8°C 52.5°F11.4°C 62% 0.7 mph SSE1.1 kmh SSE 2.2 mph3.5 kmh 29.59 in1002.0 mb 0.00 in0.0 mm 0.00 in0.0 mm 0.00 in0.0 mm
05:45 AM 66.4°F19.1°C 52.5°F11.4°C 61% 0.7 mph SSE1.1 kmh SSE 3.1 mph5.0 kmh 29.59 in1002.0 mb 0.00 in0.0 mm 0.00 in0.0 mm 0.00 in0.0 mm
05:30 AM 67.3°F19.6°C 52.5°F11.4°C 59% 0.7 mph SSE1.1 kmh SSE 3.1 mph5.0 kmh 29.60 in1002.4 mb 0.00 in0.0 mm 0.00 in0.0 mm 0.00 in0.0 mm
05:15 AM 68.0°F20.0°C 52.2°F11.2°C 57% 2.2 mph SSE3.5 kmh SSE 3.1 mph5.0 kmh 29.60 in1002.4 mb 0.00 in0.0 mm 0.00 in0.0 mm 0.00 in0.0 mm
05:00 AM 68.4°F20.2°C 52.0°F11.1°C 56% 1.6 mph S2.6 kmh S 3.1 mph5.0 kmh 29.61 in1002.7 mb 0.00 in0.0 mm 0.00 in0.0 mm 0.00 in0.0 mm
04:45 AM 68.4°F20.2°C 52.0°F11.1°C 56% 2.2 mph S3.5 kmh S 3.1 mph5.0 kmh 29.62 in1003.0 mb 0.00 in0.0 mm 0.00 in0.0 mm 0.00 in0.0 mm
04:30 AM 68.7°F20.4°C 51.9°F11.1°C 55% 1.6 mph S2.6 kmh S 3.8 mph6.1 kmh 29.62 in1003.0 mb 0.00 in0.0 mm 0.00 in0.0 mm 0.00 in0.0 mm
04:15 AM 68.9°F20.5°C 52.1°F11.2°C 55% 1.6 mph S2.6 kmh S 3.1 mph5.0 kmh 29.62 in1003.0 mb 0.00 in0.0 mm 0.00 in0.0 mm 0.00 in0.0 mm
04:00 AM 69.3°F20.7°C 52.4°F11.3°C 55% 1.6 mph S2.6 kmh S 3.8 mph6.1 kmh 29.63 in1003.4 mb 0.00 in0.0 mm 0.00 in0.0 mm 0.00 in0.0 mm
03:45 AM 69.3°F20.7°C 51.9°F11.1°C 54% 0.7 mph S1.1 kmh S 3.8 mph6.1 kmh 29.64 in1003.7 mb 0.00 in0.0 mm 0.00 in0.0 mm 0.00 in0.0 mm
03:30 AM 69.4°F20.8°C 52.1°F11.2°C 54% 2.2 mph SW3.5 kmh SW 4.5 mph7.2 kmh 29.64 in1003.7 mb 0.00 in0.0 mm 0.00 in0.0 mm 0.00 in0.0 mm
03:15 AM 69.8°F21.0°C 51.4°F10.8°C 52% 1.6 mph SSE2.6 kmh SSE 4.5 mph7.2 kmh 29.65 in1004.1 mb 0.00 in0.0 mm 0.00 in0.0 mm 0.00 in0.0 mm
03:00 AM 70.0°F21.1°C 51.0°F10.6°C 51% 2.2 mph SE3.5 kmh SE 4.5 mph7.2 kmh 29.64 in1003.7 mb 0.00 in0.0 mm 0.00 in0.0 mm 0.00 in0.0 mm
02:45 AM 70.2°F21.2°C 51.2°F10.7°C 51% 1.6 mph SE2.6 kmh SE 3.1 mph5.0 kmh 29.65 in1004.1 mb 0.00 in0.0 mm 0.00 in0.0 mm 0.00 in0.0 mm
02:30 AM 70.3°F21.3°C 50.8°F10.4°C 50% 2.2 mph S3.5 kmh S 5.4 mph8.7 kmh 29.66 in1004.4 mb 0.00 in0.0 mm 0.00 in0.0 mm 0.00 in0.0 mm
02:15 AM 70.7°F21.5°C 51.1°F10.6°C 50% 2.2 mph SSE3.5 kmh SSE 6.9 mph11.1 kmh 29.66 in1004.4 mb 0.00 in0.0 mm 0.00 in0.0 mm 0.00 in0.0 mm
02:00 AM 70.3°F21.3°C 50.8°F10.4°C 50% 4.5 mph SE7.2 kmh SE 6.9 mph11.1 kmh 29.66 in1004.4 mb 0.00 in0.0 mm 0.00 in0.0 mm 0.00 in0.0 mm
01:45 AM 70.2°F21.2°C 50.6°F10.3°C 50% 1.6 mph SE2.6 kmh SE 3.8 mph6.1 kmh 29.66 in1004.4 mb 0.00 in0.0 mm 0.00 in0.0 mm 0.00 in0.0 mm
01:30 AM 69.8°F21.0°C 50.3°F10.2°C 50% 1.6 mph SE2.6 kmh SE 3.1 mph5.0 kmh 29.67 in1004.7 mb 0.00 in0.0 mm 0.00 in0.0 mm 0.00 in0.0 mm
01:15 AM 69.8°F21.0°C 50.3°F10.2°C 50% 0.7 mph SE1.1 kmh SE 3.1 mph5.0 kmh 29.67 in1004.7 mb 0.00 in0.0 mm 0.00 in0.0 mm 0.00 in0.0 mm
01:00 AM 68.5°F20.3°C 50.2°F10.1°C 52% 3.1 mph SE5.0 kmh SE 3.8 mph6.1 kmh 29.66 in1004.4 mb 0.00 in0.0 mm 0.00 in0.0 mm 0.00 in0.0 mm
12:45 AM 68.7°F20.4°C 49.9°F9.9°C 51% 1.6 mph SE2.6 kmh SE 2.2 mph3.5 kmh 29.66 in1004.4 mb 0.00 in0.0 mm 0.00 in0.0 mm 0.00 in0.0 mm
12:30 AM 68.7°F20.4°C 50.4°F10.2°C 52% 0.7 mph SE1.1 kmh SE 3.1 mph5.0 kmh 29.67 in1004.7 mb 0.00 in0.0 mm 0.00 in0.0 mm 0.00 in0.0 mm
12:15 AM 67.5°F19.7°C 50.7°F10.4°C 55% 0.7 mph SE1.1 kmh SE 3.1 mph5.0 kmh 29.68 in1005.1 mb 0.00 in0.0 mm 0.00 in0.0 mm 0.00 in0.0 mm
12:00 AM 63.3°F17.4°C 51.3°F10.7°C 65% 0.7 mph SE1.1 kmh SE 2.2 mph3.5 kmh 29.68 in1005.1 mb 0.00 in0.0 mm 0.00 in0.0 mm 0.00 in0.0 mm